Time;durP1;ratioP1;P1;durP2;ratioP2;P2;SDS_P1;SDS_P2;PMS_P1;PMS_P2;Temp;Humidity;BMP_temperature;BMP_pressure;BME280_temperature;BME280_humidity;BME280_pressure;Samples;Min_cycle;Max_cycle;Signal;HPM_P1;HPM_P2
2024/03/20 00:04:04;;;;;;;119.10;59.97;;;;;;;;;;10125938;28;20059;-77
2024/03/20 00:08:56;;;;;;;144.07;62.10;;;;;;;;;;10125495;28;20401;-76
2024/03/20 00:13:48;;;;;;;139.25;65.38;;;;;;;;;;10137420;28;20524;-78
2024/03/20 00:18:41;;;;;;;143.85;62.80;;;;;;;;;;10132048;28;20044;-76
2024/03/20 00:23:33;;;;;;;136.88;61.17;;;;;;;;;;10117405;28;20067;-77
2024/03/20 00:28:26;;;;;;;121.78;59.70;;;;;;;;;;10129060;28;20032;-78
2024/03/20 00:33:18;;;;;;;109.00;58.05;;;;;;;;;;10132154;28;20056;-77
2024/03/20 00:38:10;;;;;;;119.13;54.90;;;;;;;;;;10132732;28;20040;-76
2024/03/20 00:43:03;;;;;;;108.60;54.85;;;;;;;;;;10131280;28;20049;-75
2024/03/20 00:47:56;;;;;;;110.82;55.70;;;;;;;;;;10134449;28;20051;-78
2024/03/20 00:52:48;;;;;;;142.70;62.25;;;;;;;;;;10131580;28;20472;-76
2024/03/20 00:57:43;;;;;;;171.50;59.63;;;;;;;;;;10129701;28;20048;-74
2024/03/20 01:02:35;;;;;;;189.73;62.42;;;;;;;;;;10138701;28;20040;-75
2024/03/20 01:07:28;;;;;;;160.95;69.50;;;;;;;;;;10129879;28;20465;-75
2024/03/20 01:12:20;;;;;;;175.23;61.40;;;;;;;;;;10131181;28;20060;-75
2024/03/20 01:17:15;;;;;;;148.30;59.25;;;;;;;;;;10129713;28;20094;-75
2024/03/20 01:22:07;;;;;;;130.85;58.78;;;;;;;;;;10136433;28;20056;-75
2024/03/20 01:26:59;;;;;;;113.00;56.42;;;;;;;;;;10129511;28;20506;-76
2024/03/20 01:31:51;;;;;;;97.75;47.90;;;;;;;;;;10136639;28;20052;-75
2024/03/20 01:36:44;;;;;;;103.43;48.63;;;;;;;;;;10123966;28;20052;-75
2024/03/20 01:41:37;;;;;;;170.90;50.35;;;;;;;;;;10140920;28;20060;-75
2024/03/20 01:46:34;;;;;;;155.63;51.33;;;;;;;;;;10128041;28;20057;-76
2024/03/20 01:51:31;;;;;;;137.82;51.47;;;;;;;;;;10119502;28;20118;-75
2024/03/20 01:56:23;;;;;;;102.07;49.70;;;;;;;;;;10125176;28;20048;-77
2024/03/20 02:01:16;;;;;;;182.50;53.13;;;;;;;;;;10127297;28;20397;-75
2024/03/20 02:06:18;;;;;;;138.02;50.83;;;;;;;;;;10131440;28;20040;-75
2024/03/20 02:11:11;;;;;;;122.65;51.83;;;;;;;;;;10129095;28;20051;-75
2024/03/20 02:16:04;;;;;;;189.55;51.53;;;;;;;;;;10134365;28;20075;-75
2024/03/20 02:20:57;;;;;;;183.40;50.85;;;;;;;;;;10127798;28;20051;-75
2024/03/20 02:25:49;;;;;;;189.75;54.10;;;;;;;;;;10127720;28;20055;-75
2024/03/20 02:30:41;;;;;;;171.93;52.88;;;;;;;;;;10122615;28;20052;-76
2024/03/20 02:35:34;;;;;;;110.70;50.33;;;;;;;;;;10128026;28;20131;-75
2024/03/20 02:40:26;;;;;;;153.32;53.53;;;;;;;;;;10127700;28;20060;-75
2024/03/20 02:45:18;;;;;;;117.28;52.55;;;;;;;;;;10135242;28;20071;-75
2024/03/20 02:50:11;;;;;;;164.23;51.78;;;;;;;;;;10125608;28;20512;-75
2024/03/20 02:55:04;;;;;;;131.63;49.47;;;;;;;;;;10127419;28;20538;-75
2024/03/20 02:59:56;;;;;;;105.95;49.30;;;;;;;;;;10110157;28;20047;-76
2024/03/20 03:04:49;;;;;;;84.90;44.35;;;;;;;;;;10126267;28;20041;-76
2024/03/20 03:09:42;;;;;;;82.88;47.15;;;;;;;;;;10126308;28;20045;-75
2024/03/20 03:14:42;;;;;;;66.97;44.22;;;;;;;;;;10125999;28;20060;-75
2024/03/20 03:19:35;;;;;;;60.53;38.97;;;;;;;;;;10126176;28;20063;-77
2024/03/20 03:24:27;;;;;;;72.50;41.10;;;;;;;;;;10125618;28;20075;-78
2024/03/20 03:29:20;;;;;;;73.93;42.58;;;;;;;;;;10126072;28;20044;-77
2024/03/20 03:34:12;;;;;;;81.82;41.88;;;;;;;;;;10129258;28;20943;-77
2024/03/20 03:39:05;;;;;;;80.25;44.97;;;;;;;;;;10135257;28;20044;-78
2024/03/20 03:43:58;;;;;;;87.47;45.25;;;;;;;;;;10138331;28;20562;-78
2024/03/20 03:48:50;;;;;;;81.90;45.42;;;;;;;;;;10135667;28;20131;-77
2024/03/20 03:53:44;;;;;;;71.90;44.45;;;;;;;;;;10132741;28;20052;-77
2024/03/20 03:58:37;;;;;;;81.28;44.08;;;;;;;;;;10132337;28;20041;-77
2024/03/20 04:03:29;;;;;;;76.40;42.45;;;;;;;;;;10133066;28;20179;-77
2024/03/20 04:08:22;;;;;;;64.40;40.63;;;;;;;;;;10131802;28;20439;-77
2024/03/20 04:13:15;;;;;;;73.88;41.88;;;;;;;;;;10131258;28;20158;-78
2024/03/20 04:18:07;;;;;;;67.90;40.25;;;;;;;;;;10132303;28;20458;-78
2024/03/20 04:23:01;;;;;;;67.35;41.08;;;;;;;;;;10132179;28;20048;-77
2024/03/20 04:27:53;;;;;;;64.18;38.72;;;;;;;;;;10132085;28;20047;-75
2024/03/20 04:32:45;;;;;;;62.10;39.95;;;;;;;;;;10131672;28;20111;-76
2024/03/20 04:37:39;;;;;;;60.45;38.40;;;;;;;;;;10131325;28;20068;-75
2024/03/20 04:42:31;;;;;;;62.83;40.35;;;;;;;;;;10129837;28;20044;-75
2024/03/20 04:47:24;;;;;;;75.97;40.70;;;;;;;;;;10131024;28;20135;-76
2024/03/20 04:52:16;;;;;;;72.13;42.40;;;;;;;;;;10130324;28;20419;-76
2024/03/20 04:57:09;;;;;;;70.25;43.13;;;;;;;;;;10132114;28;20408;-78
2024/03/20 05:02:02;;;;;;;71.90;39.72;;;;;;;;;;10129445;28;20555;-75
2024/03/20 05:06:55;;;;;;;75.63;41.55;;;;;;;;;;10129019;28;20036;-75
2024/03/20 05:11:48;;;;;;;75.88;43.10;;;;;;;;;;10129245;28;20048;-77
2024/03/20 05:17:00;;;;;;;100.28;50.30;;;;;;;;;;10134864;28;20109;-77
2024/03/20 05:21:53;;;;;;;94.10;47.28;;;;;;;;;;10128834;28;20080;-76
2024/03/20 05:26:45;;;;;;;102.20;48.35;;;;;;;;;;10128659;28;20439;-77
2024/03/20 05:31:38;;;;;;;102.63;48.38;;;;;;;;;;10130576;28;20148;-76
2024/03/20 05:36:31;;;;;;;108.97;47.72;;;;;;;;;;10133602;28;20404;-76
2024/03/20 05:41:25;;;;;;;113.57;44.08;;;;;;;;;;10128805;28;20569;-77
2024/03/20 05:46:17;;;;;;;101.93;48.42;;;;;;;;;;10136136;28;20060;-77
2024/03/20 05:51:10;;;;;;;89.70;45.40;;;;;;;;;;10128159;28;20051;-77
2024/03/20 05:56:04;;;;;;;110.30;45.70;;;;;;;;;;10128986;28;20044;-77
2024/03/20 06:00:57;;;;;;;75.50;39.95;;;;;;;;;;10128829;28;20508;-77
2024/03/20 06:05:51;;;;;;;78.45;41.22;;;;;;;;;;10126460;28;20052;-76
2024/03/20 06:10:43;;;;;;;79.38;41.40;;;;;;;;;;10128188;28;20088;-76
2024/03/20 06:15:36;;;;;;;75.05;39.40;;;;;;;;;;10126461;28;20106;-76
2024/03/20 06:20:28;;;;;;;69.43;40.60;;;;;;;;;;10127740;28;20048;-75
2024/03/20 06:25:21;;;;;;;87.18;42.33;;;;;;;;;;10126323;28;20044;-74
2024/03/20 06:30:15;;;;;;;73.47;39.78;;;;;;;;;;10126635;28;20061;-74
2024/03/20 06:35:08;;;;;;;101.40;47.97;;;;;;;;;;10126869;28;20086;-76
2024/03/20 06:40:02;;;;;;;97.03;45.50;;;;;;;;;;10125986;28;20048;-76
2024/03/20 06:44:55;;;;;;;93.97;46.55;;;;;;;;;;10145345;28;20055;-76
2024/03/20 06:49:50;;;;;;;92.15;45.28;;;;;;;;;;10130876;28;20056;-75
2024/03/20 06:54:46;;;;;;;84.78;44.85;;;;;;;;;;10126952;28;20049;-76
2024/03/20 06:59:38;;;;;;;93.65;43.67;;;;;;;;;;10127518;28;20055;-76
2024/03/20 07:04:31;;;;;;;92.00;44.92;;;;;;;;;;10125892;28;20508;-76
2024/03/20 07:09:23;;;;;;;90.22;44.25;;;;;;;;;;10125656;28;20041;-76
2024/03/20 07:14:17;;;;;;;85.72;42.67;;;;;;;;;;10128199;28;20419;-76
2024/03/20 07:19:10;;;;;;;89.55;45.25;;;;;;;;;;10141739;28;20060;-78
2024/03/20 07:24:03;;;;;;;80.78;42.13;;;;;;;;;;10133180;28;20048;-76
2024/03/20 07:28:55;;;;;;;92.55;43.80;;;;;;;;;;10132539;28;20048;-77
2024/03/20 07:33:48;;;;;;;82.35;44.08;;;;;;;;;;10136133;28;20056;-76
2024/03/20 07:38:40;;;;;;;79.97;41.10;;;;;;;;;;10142742;28;20500;-76
2024/03/20 07:43:36;;;;;;;73.95;43.47;;;;;;;;;;10133295;28;20068;-76
2024/03/20 07:48:28;;;;;;;73.47;41.17;;;;;;;;;;10142678;28;20040;-76
2024/03/20 07:53:21;;;;;;;67.88;40.60;;;;;;;;;;10126823;28;20389;-76
2024/03/20 07:58:13;;;;;;;65.05;39.03;;;;;;;;;;10137492;28;20059;-74
2024/03/20 08:03:06;;;;;;;67.50;42.28;;;;;;;;;;10129356;28;20053;-75
2024/03/20 08:07:58;;;;;;;69.38;41.22;;;;;;;;;;10145205;28;20468;-75
2024/03/20 08:12:50;;;;;;;63.67;36.13;;;;;;;;;;10132290;28;20041;-75
2024/03/20 08:17:42;;;;;;;57.40;36.72;;;;;;;;;;10131500;28;20433;-75
2024/03/20 08:22:35;;;;;;;54.03;36.08;;;;;;;;;;10131293;28;20131;-75
2024/03/20 08:27:28;;;;;;;54.75;34.90;;;;;;;;;;10132535;28;20052;-75
2024/03/20 08:32:20;;;;;;;54.83;34.80;;;;;;;;;;10135840;28;20045;-75
2024/03/20 08:37:13;;;;;;;62.83;36.42;;;;;;;;;;10137874;28;20056;-76
2024/03/20 08:42:06;;;;;;;52.20;34.30;;;;;;;;;;10131027;28;20415;-76
2024/03/20 08:46:59;;;;;;;54.95;35.03;;;;;;;;;;10129844;28;20071;-75
2024/03/20 08:51:53;;;;;;;56.38;37.33;;;;;;;;;;10130447;28;20056;-77
2024/03/20 08:56:45;;;;;;;52.53;34.85;;;;;;;;;;10129893;28;20052;-77
2024/03/20 09:01:38;;;;;;;48.13;31.60;;;;;;;;;;10129916;28;20152;-77
2024/03/20 09:06:31;;;;;;;44.40;31.42;;;;;;;;;;10130005;28;20044;-78
2024/03/20 09:11:24;;;;;;;44.22;30.85;;;;;;;;;;10129340;28;20067;-77
2024/03/20 09:16:16;;;;;;;43.65;30.08;;;;;;;;;;10142649;28;20056;-76
2024/03/20 09:21:09;;;;;;;43.85;28.83;;;;;;;;;;10124594;28;20098;-77
2024/03/20 09:26:03;;;;;;;37.97;26.98;;;;;;;;;;10124899;28;20040;-77
2024/03/20 09:30:55;;;;;;;42.58;28.65;;;;;;;;;;10133895;28;20457;-76
2024/03/20 09:35:48;;;;;;;51.42;34.05;;;;;;;;;;10128050;28;20033;-76
2024/03/20 09:40:41;;;;;;;51.95;35.78;;;;;;;;;;10126395;28;20052;-79
2024/03/20 09:45:34;;;;;;;51.13;33.55;;;;;;;;;;10127390;28;20497;-80
2024/03/20 09:50:28;;;;;;;53.35;32.83;;;;;;;;;;10127433;28;20223;-77
2024/03/20 09:55:20;;;;;;;53.30;33.83;;;;;;;;;;10128162;28;20063;-77
2024/03/20 10:00:17;;;;;;;54.28;33.47;;;;;;;;;;10127758;28;20045;-77
2024/03/20 10:05:12;;;;;;;48.65;33.83;;;;;;;;;;10127755;28;20049;-76
2024/03/20 10:10:08;;;;;;;47.33;32.33;;;;;;;;;;10127044;28;20094;-76
2024/03/20 10:15:07;;;;;;;48.05;30.73;;;;;;;;;;10127844;28;20052;-76
2024/03/20 10:20:01;;;;;;;49.20;32.55;;;;;;;;;;10141309;28;20044;-76
2024/03/20 10:24:54;;;;;;;47.90;33.50;;;;;;;;;;10127306;28;20055;-77
2024/03/20 10:29:47;;;;;;;50.50;32.58;;;;;;;;;;10126992;28;20056;-75
2024/03/20 10:34:39;;;;;;;43.38;31.13;;;;;;;;;;10106440;28;20075;-75
2024/03/20 10:39:32;;;;;;;49.55;30.63;;;;;;;;;;10110272;28;20040;-75
2024/03/20 10:44:26;;;;;;;48.03;30.50;;;;;;;;;;10123830;28;20052;-76
2024/03/20 10:49:23;;;;;;;48.50;31.95;;;;;;;;;;10142318;28;20052;-77
2024/03/20 10:54:16;;;;;;;57.33;35.05;;;;;;;;;;10124195;28;20048;-77
2024/03/20 10:59:14;;;;;;;46.60;29.90;;;;;;;;;;10125318;28;20055;-76
2024/03/20 11:04:08;;;;;;;45.17;30.50;;;;;;;;;;10125052;28;20057;-77
2024/03/20 11:09:06;;;;;;;42.25;31.83;;;;;;;;;;10125205;28;20040;-77
2024/03/20 11:14:05;;;;;;;46.93;31.57;;;;;;;;;;10122955;28;20097;-76
2024/03/20 11:19:05;;;;;;;42.08;28.98;;;;;;;;;;10124360;28;20496;-76
2024/03/20 11:23:57;;;;;;;40.38;28.48;;;;;;;;;;10123607;28;20067;-76
2024/03/20 11:28:49;;;;;;;44.08;27.67;;;;;;;;;;10125696;28;20047;-76
2024/03/20 11:33:44;;;;;;;43.03;29.25;;;;;;;;;;10118210;28;20503;-76
2024/03/20 11:38:38;;;;;;;46.95;30.05;;;;;;;;;;10129914;28;20432;-77
2024/03/20 11:43:33;;;;;;;46.85;30.60;;;;;;;;;;10112487;28;20045;-77
2024/03/20 11:48:26;;;;;;;42.47;28.77;;;;;;;;;;10124036;28;20048;-77
2024/03/20 11:53:18;;;;;;;44.13;28.55;;;;;;;;;;10122132;28;20527;-77
2024/03/20 11:58:12;;;;;;;45.45;27.58;;;;;;;;;;10127141;28;20055;-77
2024/03/20 12:03:22;;;;;;;42.15;28.58;;;;;;;;;;10126867;28;20123;-77
2024/03/20 12:08:20;;;;;;;;;;;;;;;;;;10132506;28;20404;-77
2024/03/20 12:13:12;;;;;;;49.72;31.23;;;;;;;;;;10125171;28;19920;-78
2024/03/20 12:18:08;;;;;;;40.28;28.27;;;;;;;;;;10137754;28;20044;-76
2024/03/20 12:23:06;;;;;;;40.38;28.17;;;;;;;;;;10131522;28;20048;-76
2024/03/20 12:27:58;;;;;;;40.47;28.67;;;;;;;;;;10131787;28;20052;-77
2024/03/20 12:32:50;;;;;;;46.30;29.67;;;;;;;;;;10132780;28;20044;-77
2024/03/20 12:37:43;;;;;;;44.28;28.10;;;;;;;;;;10132917;28;20056;-78
2024/03/20 12:42:36;;;;;;;43.58;29.83;;;;;;;;;;10130542;28;20036;-77
2024/03/20 12:47:28;;;;;;;40.25;27.88;;;;;;;;;;10130541;28;20056;-77
2024/03/20 12:52:21;;;;;;;38.50;26.58;;;;;;;;;;10129843;28;20664;-77
2024/03/20 12:57:14;;;;;;;38.97;29.58;;;;;;;;;;10127222;28;20053;-76
2024/03/20 13:02:14;;;;;;;43.67;33.13;;;;;;;;;;10126340;28;20397;-77
2024/03/20 13:07:08;;;;;;;38.28;29.83;;;;;;;;;;10113053;28;20039;-77
2024/03/20 13:12:01;;;;;;;44.50;33.20;;;;;;;;;;10129558;28;20047;-77
2024/03/20 13:16:53;;;;;;;34.70;27.58;;;;;;;;;;10129003;28;20079;-76
2024/03/20 13:21:48;;;;;;;32.20;24.50;;;;;;;;;;10128779;28;20117;-77
2024/03/20 13:26:41;;;;;;;33.00;24.88;;;;;;;;;;10125458;28;20050;-77
2024/03/20 13:31:34;;;;;;;37.13;26.92;;;;;;;;;;10124700;28;20044;-77
2024/03/20 13:36:27;;;;;;;33.10;24.42;;;;;;;;;;10127629;28;20044;-77
2024/03/20 13:46:12;;;;;;;35.03;26.15;;;;;;;;;;10124383;28;20087;-76
2024/03/20 13:51:16;;;;;;;39.13;27.58;;;;;;;;;;10125730;28;20048;-76
2024/03/20 13:56:14;;;;;;;36.70;28.10;;;;;;;;;;10126377;28;20040;-77
2024/03/20 14:01:18;;;;;;;35.88;25.50;;;;;;;;;;10128039;28;20059;-77
2024/03/20 14:06:33;;;;;;;39.00;28.67;;;;;;;;;;10127441;28;20399;-76
2024/03/20 14:11:27;;;;;;;38.83;27.38;;;;;;;;;;10115300;28;20624;-76
2024/03/20 14:16:42;;;;;;;34.40;26.35;;;;;;;;;;10122489;28;20094;-76
2024/03/20 14:21:33;;;;;;;35.67;24.92;;;;;;;;;;10125432;28;20071;-76
2024/03/20 14:26:26;;;;;;;36.97;27.38;;;;;;;;;;10127243;28;20044;-76
2024/03/20 14:31:19;;;;;;;35.55;25.95;;;;;;;;;;10124707;28;20102;-76
2024/03/20 14:36:12;;;;;;;35.72;25.50;;;;;;;;;;10128464;28;20044;-76
2024/03/20 14:41:05;;;;;;;36.72;25.05;;;;;;;;;;10125916;28;20488;-77
2024/03/20 14:45:59;;;;;;;34.10;25.05;;;;;;;;;;10129251;28;20048;-77
2024/03/20 14:50:51;;;;;;;37.15;26.42;;;;;;;;;;10126721;28;20101;-77
2024/03/20 14:55:46;;;;;;;33.88;24.55;;;;;;;;;;10148792;28;20097;-77
2024/03/20 15:00:42;;;;;;;35.10;25.02;;;;;;;;;;10124992;28;20071;-76
2024/03/20 15:05:35;;;;;;;33.10;23.20;;;;;;;;;;10125477;28;20044;-76
2024/03/20 15:10:26;;;;;;;30.48;23.48;;;;;;;;;;10123715;28;20048;-76
2024/03/20 15:15:18;;;;;;;31.17;23.38;;;;;;;;;;10120771;28;20085;-75
2024/03/20 15:20:13;;;;;;;29.90;22.05;;;;;;;;;;10124670;28;20097;-76
2024/03/20 15:25:08;;;;;;;30.42;23.17;;;;;;;;;;10126837;28;20063;-76
2024/03/20 15:30:01;;;;;;;29.55;22.23;;;;;;;;;;10122335;28;20416;-76
2024/03/20 15:34:54;;;;;;;31.55;22.95;;;;;;;;;;10120671;28;20131;-76
2024/03/20 15:39:47;;;;;;;35.20;23.45;;;;;;;;;;10123208;28;20037;-75
2024/03/20 15:44:40;;;;;;;31.90;22.55;;;;;;;;;;10126611;28;20063;-76
2024/03/20 15:49:33;;;;;;;27.65;21.75;;;;;;;;;;10131573;28;20048;-77
2024/03/20 15:54:26;;;;;;;35.08;22.27;;;;;;;;;;10131796;28;20044;-78
2024/03/20 15:59:18;;;;;;;27.98;22.48;;;;;;;;;;10131749;28;20045;-78
2024/03/20 16:04:11;;;;;;;28.63;21.90;;;;;;;;;;10130664;28;20036;-77
2024/03/20 16:09:04;;;;;;;29.73;21.23;;;;;;;;;;10130591;28;20060;-77
2024/03/20 16:13:58;;;;;;;26.55;21.08;;;;;;;;;;10130731;28;20051;-76
2024/03/20 16:18:50;;;;;;;28.52;19.58;;;;;;;;;;10130944;28;20493;-76
2024/03/20 16:23:43;;;;;;;30.33;20.05;;;;;;;;;;10130910;28;20431;-76
2024/03/20 16:28:35;;;;;;;23.80;20.80;;;;;;;;;;10121676;28;20048;-77
2024/03/20 16:33:27;;;;;;;25.80;20.90;;;;;;;;;;10130696;28;20055;-77
2024/03/20 16:38:20;;;;;;;24.13;19.33;;;;;;;;;;10122764;28;20053;-77
2024/03/20 16:43:12;;;;;;;23.65;20.08;;;;;;;;;;10130761;28;20048;-77
2024/03/20 16:48:06;;;;;;;24.67;20.48;;;;;;;;;;10132155;28;20047;-76
2024/03/20 16:52:58;;;;;;;25.25;19.60;;;;;;;;;;10129087;28;20126;-76
2024/03/20 16:57:51;;;;;;;25.63;20.00;;;;;;;;;;10129230;28;20419;-76
2024/03/20 17:02:44;;;;;;;22.70;17.98;;;;;;;;;;10136954;28;20413;-76
2024/03/20 17:07:36;;;;;;;27.67;22.25;;;;;;;;;;10133587;28;20158;-78
2024/03/20 17:12:31;;;;;;;22.88;19.05;;;;;;;;;;10136196;28;20463;-76
2024/03/20 17:17:24;;;;;;;22.20;18.35;;;;;;;;;;10130030;28;20048;-76
2024/03/20 17:22:16;;;;;;;23.67;17.70;;;;;;;;;;10129914;28;20071;-76
2024/03/20 17:27:09;;;;;;;25.75;21.27;;;;;;;;;;10129429;28;20049;-78
2024/03/20 17:32:21;;;;;;;22.98;19.23;;;;;;;;;;10129615;28;20040;-75
2024/03/20 17:37:13;;;;;;;33.10;27.70;;;;;;;;;;10123411;28;20079;-74
2024/03/20 17:42:06;;;;;;;27.50;23.10;;;;;;;;;;10122642;28;20103;-73
2024/03/20 17:46:58;;;;;;;27.13;20.60;;;;;;;;;;10124268;28;20497;-74
2024/03/20 17:51:50;;;;;;;24.65;20.13;;;;;;;;;;10129587;28;20072;-75
2024/03/20 17:56:43;;;;;;;25.63;20.15;;;;;;;;;;10128330;28;20455;-74
2024/03/20 18:01:36;;;;;;;29.23;22.80;;;;;;;;;;10129612;28;20057;-75
2024/03/20 18:06:28;;;;;;;23.88;19.15;;;;;;;;;;10129375;28;20045;-75
2024/03/20 18:11:20;;;;;;;38.38;30.05;;;;;;;;;;10144109;28;20060;-75
2024/03/20 18:16:14;;;;;;;31.73;25.55;;;;;;;;;;10129133;28;20059;-75
2024/03/20 18:21:10;;;;;;;49.83;35.25;;;;;;;;;;10128750;28;20044;-75
2024/03/20 18:26:04;;;;;;;37.35;28.25;;;;;;;;;;10130478;28;20094;-74
2024/03/20 18:30:56;;;;;;;28.23;22.88;;;;;;;;;;10122091;28;20071;-75
2024/03/20 18:35:49;;;;;;;28.92;23.65;;;;;;;;;;10125740;28;20028;-75
2024/03/20 18:40:41;;;;;;;29.52;25.90;;;;;;;;;;10127570;28;20044;-74
2024/03/20 18:45:37;;;;;;;30.88;23.80;;;;;;;;;;10127386;28;20060;-76
2024/03/20 18:50:29;;;;;;;25.70;19.25;;;;;;;;;;10125909;28;20072;-76
2024/03/20 18:55:22;;;;;;;59.00;36.13;;;;;;;;;;10126293;28;20048;-77
2024/03/20 19:00:15;;;;;;;30.60;24.30;;;;;;;;;;10120390;28;20083;-77
2024/03/20 19:05:28;;;;;;;48.42;33.40;;;;;;;;;;10127225;28;20121;-76
2024/03/20 19:10:21;;;;;;;34.42;27.33;;;;;;;;;;10127012;28;20461;-77
2024/03/20 19:15:14;;;;;;;29.90;23.58;;;;;;;;;;10130937;28;20055;-76
2024/03/20 19:20:14;;;;;;;28.55;22.33;;;;;;;;;;10133139;28;20048;-77
2024/03/20 19:25:07;;;;;;;27.67;22.55;;;;;;;;;;10131347;28;20070;-75
2024/03/20 19:29:59;;;;;;;27.90;22.55;;;;;;;;;;10126378;28;20094;-76
2024/03/20 19:34:57;;;;;;;30.27;23.48;;;;;;;;;;10124721;28;20045;-76
2024/03/20 19:39:52;;;;;;;33.55;24.42;;;;;;;;;;10115778;28;20044;-75
2024/03/20 19:44:51;;;;;;;32.33;26.02;;;;;;;;;;10120600;28;20416;-75
2024/03/20 19:49:44;;;;;;;35.08;23.60;;;;;;;;;;10134051;28;20056;-75
2024/03/20 19:54:38;;;;;;;32.75;24.83;;;;;;;;;;10134168;28;20048;-76
2024/03/20 19:59:31;;;;;;;40.67;27.05;;;;;;;;;;10137130;28;20060;-75
2024/03/20 20:04:23;;;;;;;37.72;28.08;;;;;;;;;;10132160;28;20091;-75
2024/03/20 20:09:16;;;;;;;35.90;28.33;;;;;;;;;;10133351;28;20166;-75
2024/03/20 20:14:08;;;;;;;41.90;32.88;;;;;;;;;;10132119;28;20060;-76
2024/03/20 20:19:01;;;;;;;48.33;35.95;;;;;;;;;;10128547;28;20045;-78
2024/03/20 20:23:53;;;;;;;47.03;34.03;;;;;;;;;;10136458;28;20504;-76
2024/03/20 20:28:46;;;;;;;49.85;34.25;;;;;;;;;;10132006;28;20041;-76
2024/03/20 20:33:43;;;;;;;51.40;35.55;;;;;;;;;;10131370;28;20051;-78
2024/03/20 20:38:35;;;;;;;50.35;34.72;;;;;;;;;;10122458;28;20088;-79
2024/03/20 20:43:28;;;;;;;45.13;31.00;;;;;;;;;;10132842;28;20059;-78
2024/03/20 20:48:21;;;;;;;43.85;33.97;;;;;;;;;;10132535;28;20039;-78
2024/03/20 20:53:13;;;;;;;43.78;31.73;;;;;;;;;;10132571;28;20496;-78
2024/03/20 20:58:06;;;;;;;40.72;30.88;;;;;;;;;;10132413;28;20597;-76
2024/03/20 21:23:42;;;;;;;38.75;30.55;;;;;;;;;;10127196;28;20561;-75
2024/03/20 21:28:35;;;;;;;46.42;32.17;;;;;;;;;;10109935;28;20106;-75
2024/03/20 21:33:27;;;;;;;46.47;32.58;;;;;;;;;;10125064;28;20041;-76
2024/03/20 21:38:20;;;;;;;42.05;30.75;;;;;;;;;;10130064;28;20060;-76
2024/03/20 21:43:14;;;;;;;38.15;25.98;;;;;;;;;;10130195;28;20587;-76
2024/03/20 21:48:08;;;;;;;39.83;28.17;;;;;;;;;;10130109;28;20052;-76
2024/03/20 21:53:03;;;;;;;40.75;27.75;;;;;;;;;;10130182;28;20481;-76
2024/03/20 21:57:56;;;;;;;31.92;24.30;;;;;;;;;;10128332;28;20036;-75
2024/03/20 22:02:48;;;;;;;35.08;25.70;;;;;;;;;;10129388;28;20086;-76
2024/03/20 22:07:44;;;;;;;33.72;23.38;;;;;;;;;;10129937;28;20052;-75
2024/03/20 22:12:36;;;;;;;37.15;26.75;;;;;;;;;;10129469;28;20036;-76
2024/03/20 22:17:30;;;;;;;34.30;25.77;;;;;;;;;;10128937;28;20094;-75
2024/03/20 22:22:24;;;;;;;41.22;28.00;;;;;;;;;;10128739;28;20048;-77
2024/03/20 22:27:17;;;;;;;32.33;22.63;;;;;;;;;;10128277;28;20033;-77
2024/03/20 22:32:10;;;;;;;32.85;24.90;;;;;;;;;;10127364;28;20059;-77
2024/03/20 22:37:03;;;;;;;34.08;24.00;;;;;;;;;;10128842;28;20044;-77
2024/03/20 22:41:56;;;;;;;34.95;24.00;;;;;;;;;;10128022;28;20081;-75
2024/03/20 22:46:48;;;;;;;37.63;25.33;;;;;;;;;;10127803;28;20064;-77
2024/03/20 22:51:40;;;;;;;27.92;22.27;;;;;;;;;;10127404;28;20515;-75
2024/03/20 22:56:33;;;;;;;24.15;18.83;;;;;;;;;;10128028;28;21343;-77
2024/03/20 23:01:25;;;;;;;33.63;25.50;;;;;;;;;;10127385;28;20462;-77
2024/03/20 23:06:19;;;;;;;31.35;19.60;;;;;;;;;;10127432;28;20040;-76
2024/03/20 23:11:12;;;;;;;31.05;21.95;;;;;;;;;;10127763;28;20063;-76
2024/03/20 23:16:06;;;;;;;30.70;21.20;;;;;;;;;;10127995;28;20052;-75
2024/03/20 23:20:58;;;;;;;26.98;20.23;;;;;;;;;;10127425;28;20040;-75
2024/03/20 23:25:51;;;;;;;26.13;20.73;;;;;;;;;;10127021;28;20114;-76
2024/03/20 23:30:43;;;;;;;26.70;20.08;;;;;;;;;;10127409;28;20059;-76
2024/03/20 23:35:37;;;;;;;20.70;15.48;;;;;;;;;;10123483;28;20044;-76
2024/03/20 23:40:32;;;;;;;13.70;11.18;;;;;;;;;;10109142;28;20622;-75
2024/03/20 23:45:24;;;;;;;11.93;9.98;;;;;;;;;;10105829;28;20514;-76
2024/03/20 23:50:17;;;;;;;16.10;11.40;;;;;;;;;;10125719;28;20423;-75
2024/03/20 23:55:09;;;;;;;13.88;11.10;;;;;;;;;;10126592;28;20044;-76
